createdAt,value
2018-04-28T00:00:36.063Z,0
2018-04-28T00:01:36.624Z,0
2018-04-28T00:02:37.185Z,0
2018-04-28T00:03:37.747Z,0
2018-04-28T00:04:38.294Z,0
2018-04-28T00:05:38.839Z,0
2018-04-28T00:06:39.382Z,0
2018-04-28T00:07:39.932Z,0
2018-04-28T00:08:40.476Z,0
2018-04-28T00:09:41.027Z,0
2018-04-28T00:10:41.593Z,0
2018-04-28T00:11:42.125Z,0
2018-04-28T00:12:42.673Z,0
2018-04-28T00:13:43.269Z,0
2018-04-28T00:14:43.819Z,0
2018-04-28T00:15:44.369Z,0
2018-04-28T00:16:44.917Z,0
2018-04-28T00:17:45.469Z,0
2018-04-28T00:18:46.020Z,0
2018-04-28T00:19:46.563Z,0
2018-04-28T00:20:47.113Z,0
2018-04-28T00:21:47.663Z,0
2018-04-28T00:22:48.211Z,0
2018-04-28T00:23:48.760Z,0
2018-04-28T00:24:49.308Z,0
2018-04-28T00:25:49.856Z,0
2018-04-28T00:26:50.408Z,0
2018-04-28T00:27:50.962Z,0
2018-04-28T00:28:51.516Z,0
2018-04-28T00:29:52.061Z,0
2018-04-28T00:30:52.614Z,0
2018-04-28T00:31:53.153Z,0
2018-04-28T00:32:53.709Z,0
2018-04-28T00:33:54.254Z,0
2018-04-28T00:34:54.800Z,0
2018-04-28T00:35:55.352Z,0
2018-04-28T00:36:55.899Z,0
2018-04-28T00:37:56.446Z,0
2018-04-28T00:38:56.995Z,0
2018-04-28T00:39:57.550Z,0
2018-04-28T00:40:58.090Z,0
2018-04-28T00:41:58.638Z,0
2018-04-28T00:42:59.185Z,0
2018-04-28T00:43:59.735Z,0
2018-04-28T00:45:00.286Z,0
2018-04-28T00:46:00.839Z,0
2018-04-28T00:47:01.388Z,0
2018-04-28T00:48:01.941Z,0
2018-04-28T00:49:02.490Z,0
2018-04-28T00:50:03.044Z,0
2018-04-28T00:51:03.586Z,0
2018-04-28T00:52:04.140Z,0
2018-04-28T00:53:04.690Z,0
2018-04-28T00:54:05.242Z,0
2018-04-28T00:55:05.791Z,0
2018-04-28T00:56:06.343Z,0
2018-04-28T00:57:06.896Z,0
2018-04-28T00:58:07.436Z,0
2018-04-28T00:59:07.982Z,0
2018-04-28T01:00:08.532Z,0
2018-04-28T01:01:09.091Z,0
2018-04-28T01:02:09.626Z,0
2018-04-28T01:03:10.177Z,0
2018-04-28T01:04:10.723Z,0
2018-04-28T01:05:11.272Z,0
2018-04-28T01:06:11.813Z,0
2018-04-28T01:07:12.360Z,0
2018-04-28T01:08:12.908Z,0
2018-04-28T01:09:13.455Z,0
2018-04-28T01:10:14.003Z,0
2018-04-28T01:11:14.551Z,0
2018-04-28T01:12:15.103Z,0
2018-04-28T01:13:15.646Z,0
2018-04-28T01:14:16.196Z,0
2018-04-28T01:15:16.746Z,0
2018-04-28T01:16:17.289Z,0
2018-04-28T01:17:17.842Z,0
2018-04-28T01:18:18.391Z,0
2018-04-28T01:19:18.937Z,0
2018-04-28T01:20:19.487Z,0
2018-04-28T01:21:20.036Z,0
2018-04-28T01:22:20.586Z,0
2018-04-28T01:23:21.147Z,0
2018-04-28T01:24:21.682Z,0
2018-04-28T01:25:22.265Z,0
2018-04-28T01:26:22.806Z,0
2018-04-28T01:27:23.353Z,0
2018-04-28T01:28:23.906Z,0
2018-04-28T01:29:24.454Z,0
2018-04-28T01:30:25.004Z,0
2018-04-28T01:31:25.549Z,0
2018-04-28T01:32:26.097Z,0
2018-04-28T01:33:26.650Z,0
2018-04-28T01:34:27.198Z,0
2018-04-28T01:35:27.745Z,0
2018-04-28T01:36:28.292Z,0
2018-04-28T01:37:28.842Z,0
2018-04-28T01:38:29.389Z,0
2018-04-28T01:39:29.941Z,0
2018-04-28T01:40:30.489Z,0
2018-04-28T01:41:31.038Z,0
2018-04-28T01:42:31.596Z,0
2018-04-28T01:43:32.152Z,0
2018-04-28T01:44:32.701Z,0
2018-04-28T01:45:33.254Z,0
2018-04-28T01:46:33.803Z,0
2018-04-28T01:47:34.350Z,0
2018-04-28T01:48:34.899Z,0
2018-04-28T01:49:35.450Z,0
2018-04-28T01:50:35.998Z,0
2018-04-28T01:51:36.548Z,0
2018-04-28T01:52:37.108Z,0
2018-04-28T01:53:37.655Z,0
2018-04-28T01:54:38.204Z,0
2018-04-28T01:55:38.751Z,0
2018-04-28T01:56:39.308Z,0
2018-04-28T01:57:39.846Z,0
2018-04-28T01:58:40.396Z,0
2018-04-28T01:59:40.954Z,0
2018-04-28T02:00:41.491Z,0
2018-04-28T02:01:42.039Z,0
2018-04-28T02:02:42.588Z,0
2018-04-28T02:03:43.135Z,0
2018-04-28T02:04:43.689Z,0
2018-04-28T02:05:44.238Z,0
2018-04-28T02:06:44.784Z,0
2018-04-28T02:07:45.337Z,0
2018-04-28T02:08:45.888Z,0
2018-04-28T02:09:46.438Z,0
2018-04-28T02:10:46.984Z,0
2018-04-28T02:11:47.530Z,0
2018-04-28T02:12:48.078Z,0
2018-04-28T02:13:48.621Z,0
2018-04-28T02:14:49.169Z,0
2018-04-28T02:15:49.719Z,0
2018-04-28T02:16:50.272Z,0
2018-04-28T02:17:50.825Z,0
2018-04-28T02:18:51.366Z,0
2018-04-28T02:19:51.919Z,0
2018-04-28T02:20:52.468Z,0
2018-04-28T02:21:53.040Z,0
2018-04-28T02:22:53.562Z,0
2018-04-28T02:23:54.106Z,0
2018-04-28T02:24:54.656Z,0
2018-04-28T02:25:55.205Z,0
2018-04-28T02:26:55.754Z,0
2018-04-28T02:27:56.298Z,0
2018-04-28T02:28:56.844Z,0
2018-04-28T02:29:57.395Z,0
2018-04-28T02:30:57.945Z,0
2018-04-28T02:31:58.491Z,0
2018-04-28T02:32:59.041Z,0
2018-04-28T02:33:59.587Z,0
2018-04-28T02:35:00.137Z,0
2018-04-28T02:36:00.683Z,0
2018-04-28T02:37:01.232Z,0
2018-04-28T02:38:01.781Z,0
2018-04-28T02:39:02.333Z,0
2018-04-28T02:40:02.882Z,0
2018-04-28T02:41:03.430Z,0
2018-04-28T02:42:03.973Z,0
2018-04-28T02:43:04.520Z,0
2018-04-28T02:44:05.069Z,0
2018-04-28T02:45:05.621Z,0
2018-04-28T02:46:06.167Z,0
2018-04-28T02:47:06.716Z,0
2018-04-28T02:48:07.267Z,0
2018-04-28T02:49:07.819Z,0
2018-04-28T02:50:08.377Z,0
2018-04-28T02:51:08.910Z,0
2018-04-28T02:52:09.457Z,0
2018-04-28T02:53:10.010Z,0
2018-04-28T02:54:10.554Z,0
2018-04-28T02:55:11.099Z,0
2018-04-28T02:56:11.643Z,0
2018-04-28T02:57:12.190Z,0
2018-04-28T02:58:12.735Z,0
2018-04-28T02:59:13.284Z,0
2018-04-28T03:00:13.830Z,0
2018-04-28T03:01:14.373Z,0
2018-04-28T03:02:14.926Z,0
2018-04-28T03:03:15.469Z,0
2018-04-28T03:04:16.019Z,0
2018-04-28T03:05:16.568Z,0
2018-04-28T03:06:17.113Z,0
2018-04-28T03:07:17.665Z,0
2018-04-28T03:08:18.212Z,0
2018-04-28T03:09:18.758Z,0
2018-04-28T03:10:19.306Z,0
2018-04-28T03:11:19.850Z,0
2018-04-28T03:12:20.401Z,0
2018-04-28T03:13:20.960Z,0
2018-04-28T03:14:21.506Z,0
2018-04-28T03:15:22.053Z,0
2018-04-28T03:16:22.597Z,0
2018-04-28T03:17:23.145Z,0
2018-04-28T03:18:23.696Z,0
2018-04-28T03:19:24.243Z,0
2018-04-28T03:20:24.786Z,0
2018-04-28T03:21:25.335Z,0
2018-04-28T03:22:25.883Z,0
2018-04-28T03:23:26.427Z,0
2018-04-28T03:24:27.034Z,0
2018-04-28T03:25:27.519Z,0
2018-04-28T03:26:28.071Z,0
2018-04-28T03:27:28.618Z,0
2018-04-28T03:28:29.172Z,0
2018-04-28T03:29:29.715Z,0
2018-04-28T03:30:30.260Z,0
2018-04-28T03:31:30.811Z,0
2018-04-28T03:32:31.358Z,0
2018-04-28T03:33:31.900Z,0
2018-04-28T03:34:32.452Z,0
2018-04-28T03:35:32.994Z,0
2018-04-28T03:36:33.544Z,0
2018-04-28T03:37:34.097Z,0
2018-04-28T03:38:34.637Z,4
2018-04-28T03:39:35.185Z,4
2018-04-28T03:40:35.738Z,0
2018-04-28T03:41:36.285Z,0
2018-04-28T03:42:36.831Z,4
2018-04-28T03:43:37.377Z,4
2018-04-28T03:44:37.925Z,4
2018-04-28T03:45:38.480Z,8
2018-04-28T03:46:39.025Z,4
2018-04-28T03:47:39.574Z,8
2018-04-28T03:48:40.124Z,12
2018-04-28T03:49:40.667Z,12
2018-04-28T03:50:41.217Z,16
2018-04-28T03:51:41.768Z,16
2018-04-28T03:52:42.319Z,20
2018-04-28T03:53:42.871Z,20
2018-04-28T03:54:43.413Z,28
2018-04-28T03:55:43.962Z,32
2018-04-28T03:56:44.510Z,32
2018-04-28T03:57:45.064Z,40
2018-04-28T03:58:45.614Z,48
2018-04-28T03:59:46.158Z,56
2018-04-28T04:00:46.713Z,64
2018-04-28T04:01:47.267Z,72
2018-04-28T04:02:47.815Z,80
2018-04-28T04:03:48.363Z,92
2018-04-28T04:04:48.916Z,104
2018-04-28T04:05:49.462Z,116
2018-04-28T04:06:50.014Z,132
2018-04-28T04:07:50.564Z,148
2018-04-28T04:08:51.111Z,164
2018-04-28T04:09:51.667Z,188
2018-04-28T04:10:52.217Z,208
2018-04-28T04:11:52.769Z,220
2018-04-28T04:12:53.324Z,244
2018-04-28T04:13:53.869Z,268
2018-04-28T04:14:54.429Z,296
2018-04-28T04:15:54.974Z,320
2018-04-28T04:16:55.529Z,352
2018-04-28T04:17:56.072Z,384
2018-04-28T04:18:56.619Z,416
2018-04-28T04:19:57.164Z,440
2018-04-28T04:20:57.720Z,464
2018-04-28T04:21:58.270Z,484
2018-04-28T04:22:58.825Z,512
2018-04-28T04:23:59.376Z,540
2018-04-28T04:24:59.925Z,572
2018-04-28T04:26:00.470Z,612
2018-04-28T04:27:01.020Z,660
2018-04-28T04:28:01.565Z,692
2018-04-28T04:29:02.117Z,732
2018-04-28T04:30:02.666Z,788
2018-04-28T04:31:03.221Z,860
2018-04-28T04:32:03.772Z,964
2018-04-28T04:33:04.364Z,1088
2018-04-28T04:34:04.918Z,1200
2018-04-28T04:35:05.471Z,1316
2018-04-28T04:36:06.025Z,1424
2018-04-28T04:37:06.572Z,1528
2018-04-28T04:38:07.123Z,1632
2018-04-28T04:39:07.670Z,1732
2018-04-28T04:40:08.226Z,1844
2018-04-28T04:41:08.782Z,1888
2018-04-28T04:42:09.334Z,1888
2018-04-28T04:43:09.888Z,1880
2018-04-28T04:44:10.443Z,1888
2018-04-28T04:45:10.994Z,1944
2018-04-28T04:46:11.546Z,1972
2018-04-28T04:47:12.098Z,2012
2018-04-28T04:48:12.642Z,2048
2018-04-28T04:49:13.195Z,2124
2018-04-28T04:50:13.749Z,2212
2018-04-28T04:51:14.295Z,2356
2018-04-28T04:52:14.848Z,2592
2018-04-28T04:53:15.402Z,2848
2018-04-28T04:54:15.953Z,3140
2018-04-28T04:55:16.505Z,3432
2018-04-28T04:56:17.064Z,3616
2018-04-28T04:57:17.613Z,3688
2018-04-28T04:58:18.168Z,3740
2018-04-28T04:59:18.719Z,3740
2018-04-28T05:00:19.272Z,3744
2018-04-28T05:01:19.826Z,3692
2018-04-28T05:02:20.382Z,3892
2018-04-28T05:03:20.940Z,4140
2018-04-28T05:04:21.496Z,4412
2018-04-28T05:05:22.065Z,4632
2018-04-28T05:06:22.611Z,4776
2018-04-28T05:07:23.166Z,4824
2018-04-28T05:08:23.716Z,4636
2018-04-28T05:09:24.269Z,4500
2018-04-28T05:10:24.827Z,4488
2018-04-28T05:11:25.421Z,4528
2018-04-28T05:12:25.952Z,4396
2018-04-28T05:13:26.501Z,4336
2018-04-28T05:14:27.055Z,4272
2018-04-28T05:15:27.605Z,4236
2018-04-28T05:16:28.155Z,4360
2018-04-28T05:17:28.707Z,4600
2018-04-28T05:18:29.279Z,4804
2018-04-28T05:19:29.825Z,4860
2018-04-28T05:20:30.376Z,4788
2018-04-28T05:21:30.936Z,4856
2018-04-28T05:22:31.501Z,4984
2018-04-28T05:23:32.052Z,5212
2018-04-28T05:24:32.614Z,5492
2018-04-28T05:25:33.160Z,5840
2018-04-28T05:26:33.716Z,6416
2018-04-28T05:27:34.269Z,6708
2018-04-28T05:28:34.824Z,6364
2018-04-28T05:29:35.380Z,6748
2018-04-28T05:30:35.936Z,7240
2018-04-28T05:31:36.483Z,7696
2018-04-28T05:32:37.040Z,8176
2018-04-28T05:33:37.594Z,8824
2018-04-28T05:34:38.143Z,9364
2018-04-28T05:35:38.699Z,9808
2018-04-28T05:36:39.253Z,10220
2018-04-28T05:37:39.808Z,10816
2018-04-28T05:38:40.362Z,10808
2018-04-28T05:39:40.921Z,10212
2018-04-28T05:40:41.480Z,9604
2018-04-28T05:41:42.036Z,9228
2018-04-28T05:42:42.598Z,9228
2018-04-28T05:43:43.149Z,9476
2018-04-28T05:44:43.704Z,9676
2018-04-28T05:45:44.259Z,9424
2018-04-28T05:46:44.815Z,8660
2018-04-28T05:47:45.380Z,8160
2018-04-28T05:48:45.930Z,8188
2018-04-28T05:49:46.482Z,8456
2018-04-28T05:50:47.035Z,8548
2018-04-28T05:51:47.593Z,8644
2018-04-28T05:52:48.141Z,8360
2018-04-28T05:53:48.698Z,7804
2018-04-28T05:54:49.248Z,7000
2018-04-28T05:55:49.810Z,6304
2018-04-28T05:56:50.362Z,5824
2018-04-28T05:57:50.990Z,5516
2018-04-28T05:58:51.470Z,5268
2018-04-28T05:59:52.020Z,5648
2018-04-28T06:00:52.573Z,6288
2018-04-28T06:01:53.125Z,7032
2018-04-28T06:02:53.680Z,7516
2018-04-28T06:03:54.240Z,7840
2018-04-28T06:04:54.796Z,8096
2018-04-28T06:05:55.346Z,8768
2018-04-28T06:06:55.930Z,9280
2018-04-28T06:07:56.470Z,9328
2018-04-28T06:08:57.026Z,8832
2018-04-28T06:09:57.580Z,9552
2018-04-28T06:10:58.133Z,11352
2018-04-28T06:11:58.688Z,11892
2018-04-28T06:12:59.276Z,11776
2018-04-28T06:13:59.796Z,11612
2018-04-28T06:15:00.351Z,11968
2018-04-28T06:16:00.908Z,12288
2018-04-28T06:17:01.464Z,12640
2018-04-28T06:18:02.016Z,13024
2018-04-28T06:19:02.579Z,13636
2018-04-28T06:20:03.226Z,13804
2018-04-28T06:21:03.680Z,13588
2018-04-28T06:22:04.239Z,13804
2018-04-28T06:23:04.800Z,13848
2018-04-28T06:24:05.358Z,13284
2018-04-28T06:25:05.914Z,13668
2018-04-28T06:26:06.577Z,13216
2018-04-28T06:27:07.028Z,12576
2018-04-28T06:28:07.575Z,13828
2018-04-28T06:29:08.133Z,15124
2018-04-28T06:30:08.689Z,16140
2018-04-28T06:31:09.246Z,17160
2018-04-28T06:32:09.800Z,18160
2018-04-28T06:33:10.360Z,18816
2018-04-28T06:34:10.923Z,20192
2018-04-28T06:35:11.477Z,21824
2018-04-28T06:36:12.034Z,22912
2018-04-28T06:37:12.592Z,23328
2018-04-28T06:38:13.146Z,23680
2018-04-28T06:39:13.699Z,26560
2018-04-28T06:40:14.256Z,24384
2018-04-28T06:41:14.823Z,25344
2018-04-28T06:42:15.371Z,27424
2018-04-28T06:43:15.932Z,26336
2018-04-28T06:44:16.490Z,25376
2018-04-28T06:45:17.055Z,26176
2018-04-28T06:46:17.612Z,27456
2018-04-28T06:47:18.168Z,26272
2018-04-28T06:48:18.722Z,24928
2018-04-28T06:49:19.283Z,25920
2018-04-28T06:50:19.841Z,29120
2018-04-28T06:51:20.398Z,26080
2018-04-28T06:52:20.958Z,25216
2018-04-28T06:53:21.519Z,27072
2018-04-28T06:54:22.071Z,45440
2018-04-28T06:55:22.635Z,24288
2018-04-28T06:56:23.196Z,22080
2018-04-28T06:57:23.758Z,20928
2018-04-28T06:58:24.316Z,19712
2018-04-28T06:59:24.877Z,18388
2018-04-28T07:00:25.433Z,17920
2018-04-28T07:01:25.994Z,18064
2018-04-28T07:02:26.554Z,17644
2018-04-28T07:03:27.109Z,17300
2018-04-28T07:04:27.723Z,19424
2018-04-28T07:05:28.227Z,20160
2018-04-28T07:06:28.776Z,17748
2018-04-28T07:07:29.334Z,18724
2018-04-28T07:08:29.885Z,20736
2018-04-28T07:09:30.451Z,24128
2018-04-28T07:10:31.005Z,28864
2018-04-28T07:11:31.567Z,28448
2018-04-28T07:12:32.120Z,26208
2018-04-28T07:13:32.682Z,28128
2018-04-28T07:14:33.245Z,31104
2018-04-28T07:15:33.804Z,28896
2018-04-28T07:16:34.360Z,30752
2018-04-28T07:17:34.924Z,28608
2018-04-28T07:18:35.481Z,27840
2018-04-28T07:19:36.045Z,31328
2018-04-28T07:20:36.601Z,36544
2018-04-28T07:21:37.159Z,31808
2018-04-28T07:22:37.720Z,38048
2018-04-28T07:23:38.287Z,33856
2018-04-28T07:24:38.843Z,32032
2018-04-28T07:25:39.403Z,31520
2018-04-28T07:26:39.964Z,36288
2018-04-28T07:27:40.528Z,38016
2018-04-28T07:28:41.131Z,36160
2018-04-28T07:29:41.654Z,31936
2018-04-28T07:30:42.217Z,30304
2018-04-28T07:31:42.783Z,29024
2018-04-28T07:32:43.341Z,28384
2018-04-28T07:33:43.905Z,27232
2018-04-28T07:34:44.467Z,27072
2018-04-28T07:35:45.031Z,26784
2018-04-28T07:36:45.593Z,26176
2018-04-28T07:37:46.162Z,27264
2018-04-28T07:38:46.720Z,28480
2018-04-28T07:39:47.288Z,30816
2018-04-28T07:40:47.853Z,47968
2018-04-28T07:41:48.411Z,33536
2018-04-28T07:42:48.971Z,34208
2018-04-28T07:43:49.533Z,29792
2018-04-28T07:44:50.098Z,27840
2018-04-28T07:45:50.658Z,27328
2018-04-28T07:46:51.217Z,27296
2018-04-28T07:47:51.782Z,28224
2018-04-28T07:48:52.342Z,29056
2018-04-28T07:49:52.963Z,30016
2018-04-28T07:50:53.519Z,31136
2018-04-28T07:51:54.076Z,31616
2018-04-28T07:52:54.643Z,33536
2018-04-28T07:53:55.201Z,35392
2018-04-28T07:54:55.758Z,38880
2018-04-28T07:55:56.320Z,41696
2018-04-28T07:56:56.884Z,36736
2018-04-28T07:57:57.443Z,36800
2018-04-28T07:58:58.007Z,36256
2018-04-28T07:59:58.571Z,40608
2018-04-28T08:00:59.135Z,35904
2018-04-28T08:01:59.701Z,36960
2018-04-28T08:03:00.267Z,35392
2018-04-28T08:04:00.823Z,35712
2018-04-28T08:05:01.388Z,34720
2018-04-28T08:06:01.958Z,34336
2018-04-28T08:07:02.519Z,33376
2018-04-28T08:08:03.076Z,32608
2018-04-28T08:09:03.635Z,32288
2018-04-28T08:10:04.198Z,32320
2018-04-28T08:11:04.759Z,32256
2018-04-28T08:12:05.317Z,32672
2018-04-28T08:13:05.877Z,33056
2018-04-28T08:14:06.440Z,32768
2018-04-28T08:15:07.021Z,32160
2018-04-28T08:16:07.568Z,31680
2018-04-28T08:17:08.124Z,31424
2018-04-28T08:18:08.681Z,31104
2018-04-28T08:19:09.235Z,30592
2018-04-28T08:20:09.796Z,30528
2018-04-28T08:21:10.356Z,31296
2018-04-28T08:22:10.914Z,32960
2018-04-28T08:23:11.472Z,35168
2018-04-28T08:24:12.029Z,35936
2018-04-28T08:25:12.595Z,36192
2018-04-28T08:26:13.144Z,36000
2018-04-28T08:27:13.699Z,35808
2018-04-28T08:28:14.257Z,35744
2018-04-28T08:29:14.823Z,35296
2018-04-28T08:30:15.381Z,34592
2018-04-28T08:31:15.937Z,33504
2018-04-28T08:32:16.498Z,32512
2018-04-28T08:33:17.059Z,32384
2018-04-28T08:34:17.619Z,32992
2018-04-28T08:35:18.182Z,33952
2018-04-28T08:36:18.756Z,34528
2018-04-28T08:37:19.454Z,34784
2018-04-28T08:38:19.867Z,35232
2018-04-28T08:39:20.431Z,36320
2018-04-28T08:40:20.984Z,37568
2018-04-28T08:41:21.550Z,39648
2018-04-28T08:42:22.111Z,39872
2018-04-28T08:43:22.669Z,40032
2018-04-28T08:44:23.231Z,41248
2018-04-28T08:45:23.793Z,42528
2018-04-28T08:46:24.355Z,45568
2018-04-28T08:47:24.914Z,77152
2018-04-28T08:48:25.481Z,46144
2018-04-28T08:49:26.043Z,48192
2018-04-28T08:50:26.611Z,74528
2018-04-28T08:51:27.169Z,49184
2018-04-28T08:52:27.734Z,45056
2018-04-28T08:53:28.299Z,44384
2018-04-28T08:54:28.865Z,44864
2018-04-28T08:55:29.434Z,44544
2018-04-28T08:56:30.000Z,43200
2018-04-28T08:57:30.569Z,43008
2018-04-28T08:58:31.135Z,43200
2018-04-28T08:59:31.693Z,43328
2018-04-28T09:00:32.256Z,43072
2018-04-28T09:01:32.824Z,42976
2018-04-28T09:02:33.380Z,42240
2018-04-28T09:03:33.949Z,42496
2018-04-28T09:04:34.512Z,42944
2018-04-28T09:05:35.076Z,42528
2018-04-28T09:06:35.638Z,42688
2018-04-28T09:07:36.197Z,42912
2018-04-28T09:08:36.755Z,42912
2018-04-28T09:09:37.334Z,44384
2018-04-28T09:10:37.879Z,45600
2018-04-28T09:11:38.445Z,45312
2018-04-28T09:12:39.014Z,47648
2018-04-28T09:13:39.577Z,45472
2018-04-28T09:14:40.151Z,45984
2018-04-28T09:15:40.716Z,44960
2018-04-28T09:16:41.281Z,43744
2018-04-28T09:17:41.840Z,43296
2018-04-28T09:18:42.406Z,42688
2018-04-28T09:19:42.974Z,42208
2018-04-28T09:20:43.537Z,42144
2018-04-28T09:21:44.098Z,44224
2018-04-28T09:22:44.664Z,38720
2018-04-28T09:23:45.231Z,37536
2018-04-28T09:24:45.791Z,37504
2018-04-28T09:25:46.357Z,37472
2018-04-28T09:26:46.918Z,36928
2018-04-28T09:27:47.479Z,36320
2018-04-28T09:28:48.034Z,36320
2018-04-28T09:29:48.599Z,36768
2018-04-28T09:30:49.166Z,37504
2018-04-28T09:31:49.731Z,38368
2018-04-28T09:32:50.290Z,38720
2018-04-28T09:33:50.851Z,37984
2018-04-28T09:34:51.410Z,37120
2018-04-28T09:35:51.970Z,36864
2018-04-28T09:36:52.532Z,37024
2018-04-28T09:37:53.100Z,36928
2018-04-28T09:38:53.713Z,36224
2018-04-28T09:39:54.292Z,35392
2018-04-28T09:40:54.838Z,34560
2018-04-28T09:41:55.397Z,33504
2018-04-28T09:42:55.966Z,31040
2018-04-28T09:43:56.526Z,28832
2018-04-28T09:44:57.090Z,27392
2018-04-28T09:45:57.652Z,27520
2018-04-28T09:46:58.214Z,28832
2018-04-28T09:47:58.775Z,30528
2018-04-28T09:48:59.333Z,31136
2018-04-28T09:49:59.893Z,29920
2018-04-28T09:51:00.464Z,27104
2018-04-28T09:52:01.006Z,23488
2018-04-28T09:53:01.571Z,20416
2018-04-28T09:54:02.130Z,18592
2018-04-28T09:55:02.693Z,18240
2018-04-28T09:56:03.252Z,17672
2018-04-28T09:57:03.810Z,17012
2018-04-28T09:58:04.369Z,17792
2018-04-28T09:59:04.984Z,20256
2018-04-28T10:00:05.483Z,24928
2018-04-28T10:01:06.047Z,29536
2018-04-28T10:02:06.599Z,31456
2018-04-28T10:03:07.155Z,29408
2018-04-28T10:04:07.719Z,25920
2018-04-28T10:05:08.270Z,23168
2018-04-28T10:06:08.829Z,22432
2018-04-28T10:07:09.393Z,23328
2018-04-28T10:08:09.956Z,24928
2018-04-28T10:09:10.522Z,28224
2018-04-28T10:10:11.073Z,35968
2018-04-28T10:11:11.625Z,36576
2018-04-28T10:12:12.193Z,41152
2018-04-28T10:13:12.757Z,45184
2018-04-28T10:14:13.319Z,42560
2018-04-28T10:15:13.880Z,43328
2018-04-28T10:16:14.441Z,46592
2018-04-28T10:17:15.005Z,49376
2018-04-28T10:18:15.569Z,69824
2018-04-28T10:19:16.128Z,68064
2018-04-28T10:20:16.771Z,64736
2018-04-28T10:21:17.251Z,102688
2018-04-28T10:22:17.815Z,105344
2018-04-28T10:23:18.374Z,51328
2018-04-28T10:24:18.943Z,62432
2018-04-28T10:25:19.512Z,36576
2018-04-28T10:26:20.067Z,30496
2018-04-28T10:27:20.633Z,27424
2018-04-28T10:28:21.195Z,25824
2018-04-28T10:29:21.754Z,27776
2018-04-28T10:30:22.318Z,29088
2018-04-28T10:31:22.876Z,27744
2018-04-28T10:32:23.439Z,28384
2018-04-28T10:33:24.003Z,32800
2018-04-28T10:34:24.567Z,48576
2018-04-28T10:35:25.132Z,64352
2018-04-28T10:36:25.691Z,44224
2018-04-28T10:37:26.254Z,43104
2018-04-28T10:38:26.818Z,78528
2018-04-28T10:39:27.380Z,43648
2018-04-28T10:40:27.948Z,67392
2018-04-28T10:41:28.517Z,126368
2018-04-28T10:42:29.081Z,46112
2018-04-28T10:43:29.647Z,139616
2018-04-28T10:44:30.219Z,139712
2018-04-28T10:45:30.782Z,133696
2018-04-28T10:46:31.348Z,119616
2018-04-28T10:47:31.977Z,132096
2018-04-28T10:48:32.484Z,120576
2018-04-28T10:49:33.048Z,48640
2018-04-28T10:50:33.615Z,59232
2018-04-28T10:51:34.182Z,53440
2018-04-28T10:52:34.751Z,114336
2018-04-28T10:53:35.358Z,144288
2018-04-28T10:54:35.874Z,69120
2018-04-28T10:55:36.443Z,103008
2018-04-28T10:56:37.016Z,125216
2018-04-28T10:57:37.578Z,137376
2018-04-28T10:58:38.152Z,63232
2018-04-28T10:59:38.716Z,56704
2018-04-28T11:00:39.285Z,101248
2018-04-28T11:01:39.858Z,53248
2018-04-28T11:02:40.418Z,90976
2018-04-28T11:03:40.983Z,143680
2018-04-28T11:04:41.550Z,54848
2018-04-28T11:05:42.119Z,52960
2018-04-28T11:06:42.688Z,43424
2018-04-28T11:07:43.258Z,40864
2018-04-28T11:08:43.821Z,36288
2018-04-28T11:09:44.384Z,31936
2018-04-28T11:10:44.947Z,30080
2018-04-28T11:11:45.516Z,30496
2018-04-28T11:12:46.078Z,34304
2018-04-28T11:13:46.641Z,40384
2018-04-28T11:14:47.210Z,60288
2018-04-28T11:15:47.776Z,120320
2018-04-28T11:16:48.341Z,133760
2018-04-28T11:17:48.907Z,96512
2018-04-28T11:18:49.474Z,89344
2018-04-28T11:19:50.135Z,39296
2018-04-28T11:20:50.602Z,33504
2018-04-28T11:21:51.172Z,32096
2018-04-28T11:22:51.735Z,31584
2018-04-28T11:23:52.300Z,32064
2018-04-28T11:24:52.863Z,34112
2018-04-28T11:25:53.468Z,36640
2018-04-28T11:26:53.990Z,79872
2018-04-28T11:27:54.555Z,62848
2018-04-28T11:28:55.118Z,102592
2018-04-28T11:29:55.673Z,34816
2018-04-28T11:30:56.239Z,28320
2018-04-28T11:31:56.805Z,24640
2018-04-28T11:32:57.420Z,21696
2018-04-28T11:33:57.931Z,20512
2018-04-28T11:34:58.491Z,20704
2018-04-28T11:35:59.052Z,21984
2018-04-28T11:36:59.617Z,26592
2018-04-28T11:38:00.193Z,31552
2018-04-28T11:39:00.751Z,112960
2018-04-28T11:40:01.322Z,46528
2018-04-28T11:41:01.882Z,44320
2018-04-28T11:42:02.447Z,39968
2018-04-28T11:43:03.013Z,51200
2018-04-28T11:44:03.577Z,72192
2018-04-28T11:45:04.138Z,43456
2018-04-28T11:46:04.704Z,43904
2018-04-28T11:47:05.272Z,36192
2018-04-28T11:48:05.836Z,37856
2018-04-28T11:49:06.401Z,41280
2018-04-28T11:50:06.971Z,44608
2018-04-28T11:51:07.535Z,44960
2018-04-28T11:52:08.098Z,42368
2018-04-28T11:53:08.663Z,41312
2018-04-28T11:54:09.229Z,43040
2018-04-28T11:55:09.793Z,42336
2018-04-28T11:56:10.361Z,40608
2018-04-28T11:57:10.924Z,38176
2018-04-28T11:58:11.489Z,36256
2018-04-28T11:59:12.090Z,33216
2018-04-28T12:00:12.614Z,31072
2018-04-28T12:01:13.180Z,28544
2018-04-28T12:02:13.746Z,26496
2018-04-28T12:03:14.309Z,25152
2018-04-28T12:04:14.877Z,24384
2018-04-28T12:05:15.518Z,23392
2018-04-28T12:06:15.999Z,22720
2018-04-28T12:07:16.558Z,22912
2018-04-28T12:08:17.116Z,63968
2018-04-28T12:09:17.673Z,26176
2018-04-28T12:10:18.237Z,29664
2018-04-28T12:11:18.804Z,33856
2018-04-28T12:12:19.412Z,44512
2018-04-28T12:13:19.996Z,41600
2018-04-28T12:14:20.559Z,41216
2018-04-28T12:15:21.124Z,43680
2018-04-28T12:16:21.693Z,42432
2018-04-28T12:17:22.253Z,40000
2018-04-28T12:18:22.819Z,38400
2018-04-28T12:19:23.382Z,36608
2018-04-28T12:20:23.950Z,35296
2018-04-28T12:21:24.519Z,45728
2018-04-28T12:22:25.079Z,37984
2018-04-28T12:23:25.642Z,38240
2018-04-28T12:24:26.208Z,37504
2018-04-28T12:25:26.777Z,37568
2018-04-28T12:26:27.333Z,38304
2018-04-28T12:27:27.895Z,39776
2018-04-28T12:28:28.456Z,47168
2018-04-28T12:29:29.019Z,53280
2018-04-28T12:30:29.584Z,42784
2018-04-28T12:31:30.150Z,36256
2018-04-28T12:32:30.707Z,32000
2018-04-28T12:33:31.271Z,31008
2018-04-28T12:34:31.829Z,32192
2018-04-28T12:35:32.388Z,34656
2018-04-28T12:36:32.950Z,35840
2018-04-28T12:37:33.509Z,34880
2018-04-28T12:38:34.067Z,35520
2018-04-28T12:39:34.642Z,35328
2018-04-28T12:40:35.199Z,36960
2018-04-28T12:41:35.764Z,31616
2018-04-28T12:42:36.330Z,28288
2018-04-28T12:43:36.901Z,26624
2018-04-28T12:44:37.462Z,26112
2018-04-28T12:45:38.027Z,27232
2018-04-28T12:46:38.591Z,35008
2018-04-28T12:47:39.156Z,30176
2018-04-28T12:48:39.721Z,32320
2018-04-28T12:49:40.280Z,34592
2018-04-28T12:50:40.906Z,29728
2018-04-28T12:51:41.410Z,24864
2018-04-28T12:52:41.977Z,21408
2018-04-28T12:53:42.537Z,19296
2018-04-28T12:54:43.099Z,17460
2018-04-28T12:55:43.661Z,16136
2018-04-28T12:56:44.224Z,15824
2018-04-28T12:57:44.782Z,16572
2018-04-28T12:58:45.339Z,17160
2018-04-28T12:59:45.900Z,17288
2018-04-28T13:00:46.466Z,16500
2018-04-28T13:01:47.040Z,16172
2018-04-28T13:02:47.582Z,16492
2018-04-28T13:03:48.143Z,16736
2018-04-28T13:04:48.704Z,17068
2018-04-28T13:05:49.263Z,18592
2018-04-28T13:06:49.822Z,21056
2018-04-28T13:07:50.390Z,23552
2018-04-28T13:08:50.945Z,26816
2018-04-28T13:09:51.503Z,46656
2018-04-28T13:10:52.065Z,37696
2018-04-28T13:11:52.623Z,37792
2018-04-28T13:12:53.190Z,35392
2018-04-28T13:13:53.753Z,33312
2018-04-28T13:14:54.314Z,32704
2018-04-28T13:15:54.876Z,33664
2018-04-28T13:16:55.440Z,35296
2018-04-28T13:17:56.004Z,37024
2018-04-28T13:18:56.565Z,35936
2018-04-28T13:19:57.138Z,35744
2018-04-28T13:20:57.691Z,37440
2018-04-28T13:21:58.251Z,38560
2018-04-28T13:22:58.820Z,38336
2018-04-28T13:23:59.383Z,40512
2018-04-28T13:24:59.942Z,43104
2018-04-28T13:26:00.504Z,47008
2018-04-28T13:27:01.157Z,42240
2018-04-28T13:28:01.631Z,39008
2018-04-28T13:29:02.201Z,39264
2018-04-28T13:30:02.762Z,39744
2018-04-28T13:31:03.330Z,41344
2018-04-28T13:32:03.889Z,40384
2018-04-28T13:33:04.447Z,39040
2018-04-28T13:34:05.005Z,36576
2018-04-28T13:35:05.571Z,34816